Detall de PIREP

Printer-friendly versionPDF version

[2015/12/22 02:35:00]
Flight IATA:CT1004
Pilot Number:016
Company ICAO:CAT
Aircraft Type:B738/F
PAX:135
Departing Airport: LEIB
Destination Airport: LEMH
Alternate Airport:LEIB
Online: VATSIM
Route:KABRE
Flight Level:F200
No Slew and time accel
No pause
Crash detect
Detect pilot in Cockpit between each 30 and 45 minutes
02:35 Zero fuel Weight: 115312 Lbs, Fuel Weight: 12980 Lbs
02:35 VATSIM:LEIB 212300Z 00000KT 6000 FEW011 11/10 Q1035 NOSIG
02:35 VATSIM:LEMH 212100Z VRB01KT 9999 FEW015 SCT045 13/12 Q1035
02:35 Parking Brakes off
02:39 Take-off
02:39 Take off Weight: 127759 Lbs
02:39 Wind: 062º @ 012 Knots Heading: 061º
02:39 POS N38º 52´ 25´´ E001º 22´ 32´´
02:39 Gear Up: 153 Knots
02:39 Flaps:3 at 153 Knots
02:40 Flaps:2 at 204 Knots
02:40 Flaps:1 at 226 Knots
02:40 Flaps:0 at 229 Knots
02:45 TOC
02:45 Fuel Weight: 10662 Lb
02:53 TOD
02:53 Fuel Weight: 9988 Lb
02:54 Wind:354º@010 Knots Heading: 061º Ground Speed: 325 Knots Altitude 18635 ft
03:01 Flaps:1 at 239 Knots
03:04 Flaps:2 at 200 Knots
03:04 Flaps:3 at 196 Knots
03:05 Flaps:4 at 180 Knots
03:05 Gear Down: 180 Knots
03:06 Flaps:5 at 160 Knots
03:06 Flaps:6 at 160 Knots
03:07 Flaps:7 at 159 Knots
03:07 Flaps:8 at 136 Knots
03:09 Wind:064º@017 Knots Heading: 014º Ground Speed: 127 Knots Altitude 898 ft
03:09 TouchDown:Rate -137 ft/min Speed: 130 Knots
03:10 VATSIM:LEMH 212100Z VRB01KT 9999 FEW015 SCT045 13/12 Q1035
03:10 Land
03:10 Wind:063º@017 Knots
03:10 Heading: 009º
03:10 Flight Duration: 00:31
03:10 Landing Weight: 124305 Lbs
03:10 POS N39º 51´ 43´´ E004º 13´ 07´´
03:11 Parking brakes on
03:11 Block to Block Duration: 00:36
03:11 Final Fuel: 8888 Lbls
03:11 Spent Fuel: 4091 Lbls
03:11 Flight Length: 150 NM
03:11 TOD Land Length: 67 NM

Exportar CSV

Powered by Drupal - Modified by Danger4k